Time;durP1;ratioP1;P1;durP2;ratioP2;P2;SDS_P1;SDS_P2;PMS_P1;PMS_P2;Temp;Humidity;BMP_temperature;BMP_pressure;BME280_temperature;BME280_humidity;BME280_pressure;Samples;Min_cycle;Max_cycle;Signal;HPM_P1;HPM_P2
2021/07/23 00:02:25;;;;;;;13.67;10.73;;;16.20;99.90;;;;;;4980639;28;20556;-55
2021/07/23 00:04:52;;;;;;;11.73;10.63;;;16.10;99.90;;;;;;4970725;28;20470;-52
2021/07/23 00:07:20;;;;;;;18.23;11.37;;;16.10;99.90;;;;;;4979972;28;20462;-57
2021/07/23 00:09:48;;;;;;;11.93;10.73;;;16.10;99.90;;;;;;4980002;28;20461;-55
2021/07/23 00:12:16;;;;;;;12.33;11.23;;;16.10;99.90;;;;;;4980500;28;20476;-56
2021/07/23 00:14:43;;;;;;;10.33;9.30;;;16.00;99.90;;;;;;4980011;28;20491;-55
2021/07/23 00:17:10;;;;;;;11.93;10.83;;;16.00;99.90;;;;;;4980281;28;20488;-55
2021/07/23 00:19:37;;;;;;;12.77;11.20;;;16.00;99.90;;;;;;4979820;28;20548;-53
2021/07/23 00:22:05;;;;;;;13.07;11.77;;;15.90;99.90;;;;;;4979460;28;20958;-55
2021/07/23 00:24:32;;;;;;;12.27;10.27;;;15.90;99.90;;;;;;4979761;28;20469;-56
2021/07/23 00:27:00;;;;;;;11.93;10.70;;;15.90;99.90;;;;;;4979825;28;20564;-54
2021/07/23 00:29:27;;;;;;;12.33;11.10;;;15.80;99.90;;;;;;4980055;28;20980;-55
2021/07/23 00:31:55;;;;;;;12.00;10.33;;;15.80;99.90;;;;;;4979689;28;20467;-55
2021/07/23 00:34:22;;;;;;;14.57;10.07;;;15.70;99.90;;;;;;4980239;28;20624;-57
2021/07/23 00:36:49;;;;;;;11.60;10.47;;;15.70;99.90;;;;;;4979935;28;20462;-57
2021/07/23 00:39:16;;;;;;;11.57;10.47;;;15.60;99.90;;;;;;4979604;28;20466;-54
2021/07/23 00:41:43;;;;;;;11.90;10.70;;;15.60;99.90;;;;;;4979215;28;20507;-57
2021/07/23 00:44:12;;;;;;;13.50;11.50;;;15.60;99.90;;;;;;4979923;28;20454;-55
2021/07/23 00:46:40;;;;;;;13.50;12.10;;;15.50;99.90;;;;;;4979581;28;20899;-57
2021/07/23 00:49:08;;;;;;;12.30;10.97;;;15.60;99.90;;;;;;4979749;28;20472;-56
2021/07/23 00:51:35;;;;;;;12.60;11.47;;;15.50;99.90;;;;;;4979109;28;20511;-57
2021/07/23 00:54:03;;;;;;;14.80;10.93;;;15.50;99.90;;;;;;4979688;28;20536;-55
2021/07/23 00:56:31;;;;;;;13.87;11.07;;;15.40;99.90;;;;;;4979801;28;20548;-54
2021/07/23 00:59:01;;;;;;;12.23;10.90;;;15.40;99.90;;;;;;4979415;28;20472;-56
2021/07/23 01:01:30;;;;;;;15.03;11.37;;;15.30;99.90;;;;;;4978842;28;20498;-55
2021/07/23 01:03:57;;;;;;;12.77;11.20;;;15.30;99.90;;;;;;4979462;28;20469;-53
2021/07/23 01:06:24;;;;;;;13.13;11.83;;;15.20;99.90;;;;;;4969876;28;20481;-57
2021/07/23 01:08:52;;;;;;;12.60;10.70;;;15.20;99.90;;;;;;4978415;28;20744;-57
2021/07/23 01:11:19;;;;;;;12.37;10.93;;;15.20;99.90;;;;;;4978896;28;20477;-56
2021/07/23 01:13:46;;;;;;;12.80;10.80;;;15.20;99.90;;;;;;4960083;29;20463;-56
2021/07/23 01:16:13;;;;;;;11.97;10.77;;;15.20;99.90;;;;;;4973238;28;20462;-55
2021/07/23 01:18:42;;;;;;;11.67;10.50;;;15.20;99.90;;;;;;4979041;28;20736;-57
2021/07/23 01:21:10;;;;;;;12.30;11.00;;;15.10;99.90;;;;;;4978501;28;20588;-56
2021/07/23 01:23:40;;;;;;;11.23;10.13;;;15.00;99.90;;;;;;4978748;28;20458;-57
2021/07/23 01:26:07;;;;;;;11.40;10.30;;;15.00;99.90;;;;;;4979232;28;20477;-57
2021/07/23 01:28:36;;;;;;;11.73;10.63;;;15.00;99.90;;;;;;4978337;28;20492;-56
2021/07/23 01:31:03;;;;;;;11.83;10.67;;;15.00;99.90;;;;;;4978449;28;20472;-57
2021/07/23 01:33:31;;;;;;;12.40;10.33;;;15.00;99.90;;;;;;4978732;28;20509;-55
2021/07/23 01:35:58;;;;;;;11.43;10.23;;;15.00;99.90;;;;;;4978999;28;20462;-57
2021/07/23 01:38:28;;;;;;;10.63;9.67;;;14.90;99.90;;;;;;4978708;28;20462;-54
2021/07/23 01:40:58;;;;;;;11.23;10.17;;;14.90;99.90;;;;;;4978690;28;20472;-56
2021/07/23 01:43:25;;;;;;;10.80;9.80;;;14.90;99.90;;;;;;4978595;28;20903;-54
2021/07/23 01:45:54;;;;;;;12.63;11.43;;;14.80;99.90;;;;;;4978809;28;20476;-57
2021/07/23 01:48:21;;;;;;;11.93;10.83;;;14.80;99.90;;;;;;4978345;28;20504;-57
2021/07/23 01:50:48;;;;;;;11.77;10.57;;;14.80;99.90;;;;;;4978084;28;20923;-57
2021/07/23 02:27:43;;;;;;;12.73;10.67;;;14.30;99.90;;;;;;5442790;23;20468;-58
2021/07/23 02:30:11;;;;;;;10.70;9.60;;;14.30;99.90;;;;;;4977651;28;20500;-49
2021/07/23 02:32:38;;;;;;;11.20;10.07;;;14.20;99.90;;;;;;4978108;28;20466;-51
2021/07/23 02:35:06;;;;;;;12.70;11.40;;;14.10;99.90;;;;;;4977926;28;20469;-53
2021/07/23 02:37:34;;;;;;;10.90;9.80;;;14.10;99.90;;;;;;4977885;28;20473;-56
2021/07/23 02:40:01;;;;;;;11.07;9.93;;;14.10;99.90;;;;;;4977904;28;20501;-56
2021/07/23 02:42:28;;;;;;;10.93;9.83;;;14.10;99.90;;;;;;4978086;28;20805;-56
2021/07/23 02:44:56;;;;;;;11.40;10.40;;;14.10;99.90;;;;;;4977769;28;20469;-57
2021/07/23 02:47:23;;;;;;;11.00;10.00;;;14.10;99.90;;;;;;4978007;28;20473;-57
2021/07/23 02:49:50;;;;;;;11.27;9.80;;;14.00;99.90;;;;;;4978013;28;20440;-53
2021/07/23 02:52:17;;;;;;;11.00;10.00;;;14.00;99.90;;;;;;4978113;28;20897;-57
2021/07/23 02:54:44;;;;;;;12.27;10.20;;;14.00;99.90;;;;;;4977699;28;20470;-55
2021/07/23 02:57:12;;;;;;;12.33;11.13;;;13.90;99.90;;;;;;4977646;28;20492;-57
2021/07/23 02:59:39;;;;;;;12.43;10.50;;;14.00;99.90;;;;;;4978032;28;20458;-56
2021/07/23 03:02:08;;;;;;;11.17;10.07;;;14.00;99.90;;;;;;4981031;28;20980;-58
2021/07/23 03:04:35;;;;;;;11.97;10.57;;;13.90;99.90;;;;;;4966069;28;20495;-55
2021/07/23 03:07:02;;;;;;;12.20;10.90;;;13.90;99.90;;;;;;4961552;28;20469;-55
2021/07/23 03:09:29;;;;;;;10.83;9.80;;;13.90;99.90;;;;;;4961476;28;20464;-55
2021/07/23 03:11:56;;;;;;;11.70;10.60;;;13.80;99.90;;;;;;4962235;29;20463;-53
2021/07/23 03:14:23;;;;;;;12.10;11.00;;;13.80;99.90;;;;;;4961361;28;20911;-57
2021/07/23 03:16:50;;;;;;;12.13;11.03;;;13.80;99.90;;;;;;4961994;29;20800;-55
2021/07/23 03:19:19;;;;;;;12.93;11.57;;;13.70;99.90;;;;;;4961690;29;20545;-58
2021/07/23 03:21:47;;;;;;;12.10;10.73;;;13.70;99.90;;;;;;4961910;28;21006;-51
2021/07/23 03:24:14;;;;;;;12.53;11.43;;;13.70;99.90;;;;;;4961529;29;20506;-57
2021/07/23 03:26:41;;;;;;;12.00;10.80;;;13.70;99.90;;;;;;4961615;29;20465;-53
2021/07/23 03:29:08;;;;;;;10.80;9.70;;;13.70;99.90;;;;;;4961837;29;20927;-57
2021/07/23 03:31:35;;;;;;;14.03;11.10;;;13.60;99.90;;;;;;4961810;29;20809;-55
2021/07/23 03:34:02;;;;;;;13.60;11.80;;;13.60;99.90;;;;;;4961894;29;20888;-55
2021/07/23 03:36:30;;;;;;;12.93;11.47;;;13.50;99.90;;;;;;4961457;29;20467;-54
2021/07/23 03:38:58;;;;;;;11.90;10.87;;;13.50;99.90;;;;;;4961194;28;20466;-55
2021/07/23 03:41:25;;;;;;;14.23;11.27;;;13.50;99.90;;;;;;4961463;29;20499;-57
2021/07/23 03:43:52;;;;;;;14.00;12.00;;;13.60;99.90;;;;;;4961900;29;20518;-58
2021/07/23 03:46:19;;;;;;;12.47;10.80;;;13.60;99.90;;;;;;4961125;29;20466;-57
2021/07/23 03:48:46;;;;;;;14.07;12.03;;;13.50;99.90;;;;;;4961270;29;20753;-58
2021/07/23 03:51:13;;;;;;;13.93;12.30;;;13.50;99.90;;;;;;4961169;29;20871;-58
2021/07/23 03:53:42;;;;;;;12.50;11.20;;;13.50;99.90;;;;;;4961692;29;20466;-58
2021/07/23 03:56:10;;;;;;;13.47;12.17;;;13.50;99.90;;;;;;4961182;29;20473;-57
2021/07/23 03:58:37;;;;;;;12.90;11.50;;;13.50;99.90;;;;;;4971364;28;20989;-58
2021/07/23 04:01:05;;;;;;;12.90;11.70;;;13.50;99.90;;;;;;4980065;28;20903;-58
2021/07/23 04:03:33;;;;;;;16.50;12.60;;;13.50;99.90;;;;;;4974122;28;20674;-56
2021/07/23 04:06:00;;;;;;;12.93;11.53;;;13.50;99.90;;;;;;4976925;28;20568;-55
2021/07/23 04:08:27;;;;;;;13.60;12.17;;;13.50;99.90;;;;;;4980434;28;20465;-56
2021/07/23 04:10:56;;;;;;;15.30;11.43;;;13.50;99.90;;;;;;4980101;28;20491;-58
2021/07/23 04:13:23;;;;;;;12.17;10.97;;;13.50;99.90;;;;;;4979676;28;20490;-52
2021/07/23 04:15:50;;;;;;;13.50;12.20;;;13.50;99.90;;;;;;4980227;28;20891;-58
2021/07/23 04:18:18;;;;;;;13.70;12.40;;;13.50;99.90;;;;;;4980742;28;20883;-58
2021/07/23 04:20:45;;;;;;;14.50;13.10;;;13.50;99.90;;;;;;4980317;28;20477;-54
2021/07/23 04:23:12;;;;;;;17.97;12.80;;;13.60;99.90;;;;;;4979787;28;20843;-55
2021/07/23 04:25:39;;;;;;;17.53;12.33;;;13.60;99.90;;;;;;4979648;28;20540;-56
2021/07/23 04:28:08;;;;;;;14.57;13.07;;;13.60;99.90;;;;;;4980241;28;20568;-57
2021/07/23 04:30:35;;;;;;;14.13;12.70;;;13.60;99.90;;;;;;4979716;28;20470;-58
2021/07/23 04:33:02;;;;;;;14.87;13.00;;;13.50;99.90;;;;;;4980047;28;20432;-58
2021/07/23 04:35:29;;;;;;;15.67;12.43;;;13.60;99.90;;;;;;4979968;28;20470;-55
2021/07/23 04:37:56;;;;;;;15.90;13.97;;;13.60;99.90;;;;;;4980034;28;20489;-58
2021/07/23 05:14:50;;;;;;;16.60;14.80;;;14.20;99.90;;;;;;5193959;23;20539;-57
2021/07/23 05:17:26;;;;;;;17.00;15.20;;;14.30;99.90;;;;;;4979666;28;20466;-55
2021/07/23 05:19:53;;;;;;;15.47;13.97;;;14.30;99.90;;;;;;4978964;28;20520;-57
2021/07/23 05:22:20;;;;;;;15.33;13.93;;;14.40;99.90;;;;;;4979056;28;20493;-57
2021/07/23 05:24:47;;;;;;;17.43;14.23;;;14.50;99.90;;;;;;4978320;28;20472;-57
2021/07/23 05:27:14;;;;;;;16.77;15.03;;;14.50;99.90;;;;;;4979176;28;20476;-57
2021/07/23 05:29:44;;;;;;;15.73;13.00;;;14.50;99.90;;;;;;4978760;28;20466;-57
2021/07/23 05:32:13;;;;;;;14.07;12.77;;;14.60;99.90;;;;;;4979120;28;20888;-57
2021/07/23 05:34:41;;;;;;;16.03;14.53;;;14.60;99.90;;;;;;4978972;28;20454;-57
2021/07/23 05:37:11;;;;;;;15.70;14.27;;;14.70;99.90;;;;;;4978901;28;20498;-57
2021/07/23 05:39:41;;;;;;;17.33;12.67;;;14.90;99.90;;;;;;4978417;28;20592;-55
2021/07/23 05:42:08;;;;;;;14.97;13.50;;;15.00;99.90;;;;;;4978961;28;20494;-57
2021/07/23 05:44:36;;;;;;;17.20;15.40;;;15.10;99.90;;;;;;4978927;28;20896;-57
2021/07/23 05:47:03;;;;;;;16.00;13.70;;;15.10;99.90;;;;;;4978594;28;20753;-57
2021/07/23 05:49:32;;;;;;;18.73;14.40;;;15.30;99.90;;;;;;4978355;28;20466;-57
2021/07/23 05:51:59;;;;;;;14.43;13.00;;;15.40;99.90;;;;;;4977814;28;20520;-57
2021/07/23 05:54:26;;;;;;;15.37;13.83;;;15.50;99.90;;;;;;4978884;28;20466;-57
2021/07/23 05:56:53;;;;;;;15.57;13.97;;;15.70;99.90;;;;;;4979000;28;20792;-56
2021/07/23 05:59:26;;;;;;;15.70;13.13;;;15.90;99.90;;;;;;4979009;28;20508;-57
2021/07/23 06:01:53;;;;;;;13.30;11.87;;;16.30;99.90;;;;;;4978214;28;20509;-55
2021/07/23 06:04:21;;;;;;;12.73;11.17;;;16.40;99.90;;;;;;4969638;28;20544;-57
2021/07/23 06:06:49;;;;;;;14.17;12.70;;;16.60;99.90;;;;;;4978412;28;20466;-55
2021/07/23 06:09:17;;;;;;;15.23;13.63;;;16.80;99.90;;;;;;4978290;28;20461;-56
2021/07/23 06:11:44;;;;;;;16.30;12.30;;;17.00;99.90;;;;;;4978033;28;20466;-55
2021/07/23 06:14:11;;;;;;;13.20;11.83;;;17.10;99.90;;;;;;4977750;28;20462;-56
2021/07/23 06:16:42;;;;;;;13.63;12.33;;;17.30;99.90;;;;;;4978253;28;20468;-55
2021/07/23 06:19:12;;;;;;;16.60;12.40;;;17.40;99.90;;;;;;4977985;28;20477;-54
2021/07/23 06:21:39;;;;;;;13.70;12.30;;;17.50;99.90;;;;;;4977988;28;20520;-51
2021/07/23 06:24:09;;;;;;;13.60;12.20;;;17.70;99.90;;;;;;4978528;28;20498;-56
2021/07/23 06:26:38;;;;;;;14.40;12.27;;;17.70;99.90;;;;;;4978296;28;20468;-56
2021/07/23 06:29:05;;;;;;;12.70;11.40;;;17.80;99.90;;;;;;4978227;28;20473;-56
2021/07/23 06:31:34;;;;;;;14.27;12.63;;;18.00;99.90;;;;;;4977971;28;20922;-53
2021/07/23 06:34:01;;;;;;;12.27;10.97;;;18.10;99.90;;;;;;4978236;28;20466;-56
2021/07/23 06:36:28;;;;;;;17.37;11.60;;;18.10;99.90;;;;;;4980480;28;20465;-53
2021/07/23 06:38:55;;;;;;;17.60;12.30;;;18.30;99.90;;;;;;4982021;28;20771;-55
2021/07/23 06:41:24;;;;;;;18.27;12.33;;;18.60;99.90;;;;;;4982364;28;20521;-52
2021/07/23 06:43:51;;;;;;;14.57;11.90;;;18.70;99.90;;;;;;4981957;28;20498;-56
2021/07/23 06:46:18;;;;;;;12.97;11.63;;;18.90;99.90;;;;;;4982068;28;20469;-55
2021/07/23 06:48:45;;;;;;;11.33;10.23;;;19.00;99.90;;;;;;4981818;28;20504;-55
2021/07/23 06:51:13;;;;;;;14.17;12.00;;;19.10;99.90;;;;;;4982062;28;20475;-55
2021/07/23 06:53:41;;;;;;;12.60;11.37;;;19.40;99.90;;;;;;4981759;28;20506;-55
2021/07/23 06:56:08;;;;;;;10.07;9.07;;;19.50;99.90;;;;;;4981693;28;20469;-50
2021/07/23 06:58:37;;;;;;;13.47;11.03;;;19.80;99.90;;;;;;4981515;28;20834;-55
2021/07/23 07:01:07;;;;;;;11.50;10.00;;;20.20;99.90;;;;;;4981796;28;20465;-52
2021/07/23 07:03:35;;;;;;;11.20;10.20;;;20.50;99.90;;;;;;4974693;28;20998;-55
2021/07/23 07:06:04;;;;;;;11.67;10.57;;;20.30;99.90;;;;;;4978244;28;20485;-54
2021/07/23 07:08:31;;;;;;;10.83;9.60;;;20.40;99.90;;;;;;4964853;28;20461;-54
2021/07/23 07:10:58;;;;;;;10.67;9.57;;;20.70;99.90;;;;;;4981628;28;20720;-50
2021/07/23 07:13:25;;;;;;;13.27;9.70;;;20.90;99.90;;;;;;4981376;28;20483;-53
2021/07/23 07:15:54;;;;;;;11.27;10.07;;;21.10;99.90;;;;;;4981121;28;20780;-51
2021/07/23 07:18:21;;;;;;;10.73;9.73;;;21.30;99.90;;;;;;4981413;28;20906;-55
2021/07/23 07:57:41;;;;;;;9.70;8.57;;;23.20;90.50;;;;;;3754616;23;20915;-57
2021/07/23 08:00:10;;;;;;;8.93;8.03;;;23.40;88.00;;;;;;4981213;28;20979;-57
2021/07/23 08:02:37;;;;;;;10.27;9.37;;;23.10;85.80;;;;;;4978400;28;20489;-58
2021/07/23 08:05:05;;;;;;;10.23;9.20;;;23.20;86.30;;;;;;4973759;28;20566;-56
2021/07/23 08:07:33;;;;;;;11.80;9.33;;;23.40;86.40;;;;;;4979837;28;20458;-57
2021/07/23 08:10:02;;;;;;;9.67;8.77;;;23.20;84.60;;;;;;4979963;28;20525;-57
2021/07/23 08:12:30;;;;;;;12.20;9.50;;;23.50;83.40;;;;;;4979749;28;20461;-57
2021/07/23 08:14:59;;;;;;;9.77;8.50;;;23.70;82.30;;;;;;4980382;28;20497;-59
2021/07/23 08:54:19;;;;;;;10.33;8.10;;;24.80;68.10;;;;;;2834355;23;20486;-52
2021/07/23 08:56:47;;;;;;;11.43;8.70;;;24.60;70.10;;;;;;4979582;28;20466;-57
2021/07/23 08:59:14;;;;;;;9.07;8.17;;;24.90;69.70;;;;;;4979890;28;20505;-56
2021/07/23 09:01:56;;;;;;;9.20;7.77;;;25.10;70.70;;;;;;4978933;28;20470;-56
2021/07/23 09:04:30;;;;;;;9.17;8.30;;;25.40;68.70;;;;;;4969917;28;20498;-56
2021/07/23 09:07:30;;;;;;;8.43;7.73;;;25.60;67.40;;;;;;4978369;28;20557;-56
2021/07/23 09:10:04;;;;;;;12.77;8.70;;;25.80;63.30;;;;;;4979185;28;20465;-55
2021/07/23 09:12:45;;;;;;;9.30;8.30;;;25.90;63.00;;;;;;4978909;28;20920;-53
2021/07/23 09:15:20;;;;;;;9.23;8.37;;;25.00;65.60;;;;;;4979090;28;20465;-51
2021/07/23 09:57:28;;;;;;;11.10;10.10;;;27.60;57.80;;;;;;4938317;29;20522;-58
2021/07/23 10:00:01;;;;;;;13.50;10.97;;;26.60;60.10;;;;;;4939845;29;20770;-57
2021/07/23 10:02:32;;;;;;;13.70;12.30;;;26.00;62.00;;;;;;4939770;29;20445;-49
2021/07/23 10:05:04;;;;;;;11.57;10.67;;;26.70;62.10;;;;;;4932655;29;20468;-56
2021/07/23 10:07:37;;;;;;;11.80;10.00;;;26.70;58.20;;;;;;4938984;29;20464;-55
2021/07/23 10:10:05;;;;;;;12.00;10.80;;;26.50;62.00;;;;;;4938700;29;20539;-54
2021/07/23 10:12:37;;;;;;;14.60;13.27;;;26.90;59.40;;;;;;4939722;29;20843;-55
2021/07/23 10:15:06;;;;;;;12.90;11.70;;;25.90;60.70;;;;;;4939309;29;20919;-55
2021/07/23 10:17:35;;;;;;;12.80;11.50;;;25.30;62.40;;;;;;4938976;29;20471;-57
2021/07/23 10:20:03;;;;;;;12.10;10.90;;;26.50;63.40;;;;;;4939196;29;20781;-56
2021/07/23 10:22:30;;;;;;;11.27;10.10;;;27.20;61.00;;;;;;4938956;29;20492;-58
2021/07/23 10:24:58;;;;;;;12.10;11.20;;;28.10;58.20;;;;;;4940006;29;20474;-51
2021/07/23 10:27:26;;;;;;;12.37;11.20;;;27.90;56.60;;;;;;4939596;29;20522;-57
2021/07/23 10:29:55;;;;;;;11.63;10.63;;;27.50;57.10;;;;;;4939033;29;20499;-57
2021/07/23 10:32:39;;;;;;;12.30;11.30;;;27.50;59.00;;;;;;4939546;29;20483;-56
2021/07/23 10:35:34;;;;;;;11.87;10.97;;;27.80;56.10;;;;;;4938615;29;20471;-55
2021/07/23 10:38:03;;;;;;;10.53;9.53;;;27.30;56.10;;;;;;4938890;29;20463;-55
2021/07/23 10:40:40;;;;;;;11.93;10.93;;;28.10;57.40;;;;;;4939549;29;20471;-55
2021/07/23 10:43:35;;;;;;;11.60;10.80;;;28.30;55.90;;;;;;4939175;29;20495;-57
2021/07/23 10:46:04;;;;;;;12.37;11.23;;;28.10;55.60;;;;;;4916578;29;20523;-54
2021/07/23 10:48:48;;;;;;;12.03;11.13;;;28.80;55.40;;;;;;4939815;29;20486;-57
2021/07/23 10:51:47;;;;;;;12.40;11.43;;;29.20;54.30;;;;;;4939694;29;20471;-57
2021/07/23 10:54:15;;;;;;;11.73;10.63;;;29.30;50.70;;;;;;4939716;29;20495;-55
2021/07/23 10:57:15;;;;;;;11.40;10.30;;;28.30;52.20;;;;;;4939636;29;20487;-55
2021/07/23 10:59:58;;;;;;;12.80;11.63;;;28.90;53.60;;;;;;4928521;29;20479;-58
2021/07/23 11:02:46;;;;;;;14.17;11.67;;;29.60;51.40;;;;;;4939353;29;20548;-56
2021/07/23 11:05:20;;;;;;;11.03;10.00;;;28.80;50.10;;;;;;4934133;29;20507;-57
2021/07/23 11:07:47;;;;;;;11.50;10.23;;;28.00;52.90;;;;;;4939291;29;20467;-57
2021/07/23 11:10:21;;;;;;;11.53;10.53;;;28.50;53.50;;;;;;4938807;29;20467;-58
2021/07/23 11:12:50;;;;;;;12.87;11.73;;;29.10;52.60;;;;;;4939457;29;20464;-56
2021/07/23 11:15:18;;;;;;;11.43;10.37;;;29.00;51.10;;;;;;4939429;29;20566;-55
2021/07/23 11:18:00;;;;;;;10.10;9.30;;;29.50;49.30;;;;;;4939087;29;20479;-59
2021/07/23 11:20:34;;;;;;;10.47;9.63;;;29.70;49.90;;;;;;4936545;29;20896;-56
2021/07/23 11:23:02;;;;;;;12.47;11.17;;;30.00;50.60;;;;;;4940223;29;20922;-58
2021/07/23 11:25:30;;;;;;;10.53;9.47;;;30.50;49.40;;;;;;4941740;29;21021;-58
2021/07/23 11:28:01;;;;;;;12.63;11.63;;;29.60;50.30;;;;;;4942510;29;20748;-57
2021/07/23 11:30:35;;;;;;;12.27;11.07;;;30.30;49.40;;;;;;4941735;29;20490;-58
2021/07/23 11:33:05;;;;;;;11.10;10.00;;;30.10;49.80;;;;;;4942796;29;20521;-58
2021/07/23 11:35:34;;;;;;;12.67;11.73;;;30.60;50.00;;;;;;4942052;29;20467;-57
2021/07/23 11:38:10;;;;;;;11.30;10.47;;;29.30;48.20;;;;;;4940855;29;20459;-55
2021/07/23 11:40:37;;;;;;;11.13;10.23;;;29.80;50.60;;;;;;4923435;29;20558;-59
2021/07/23 11:43:04;;;;;;;11.33;10.40;;;29.50;50.30;;;;;;4923657;29;20506;-59
2021/07/23 11:45:33;;;;;;;12.03;11.03;;;29.90;49.90;;;;;;4931219;29;20471;-58
2021/07/23 11:48:13;;;;;;;11.20;10.30;;;29.60;48.60;;;;;;4942088;29;20483;-54
2021/07/23 11:50:54;;;;;;;11.43;10.53;;;29.70;49.90;;;;;;4942401;29;20581;-58
2021/07/23 11:53:21;;;;;;;11.80;10.80;;;30.50;49.30;;;;;;4941610;29;20785;-58
2021/07/23 11:55:48;;;;;;;12.53;11.30;;;30.60;48.10;;;;;;4941701;29;20494;-59
2021/07/23 11:58:26;;;;;;;11.10;10.10;;;30.10;47.20;;;;;;4941880;29;20467;-58
2021/07/23 12:00:53;;;;;;;11.53;10.43;;;30.00;51.00;;;;;;4941700;29;20474;-57
2021/07/23 12:03:26;;;;;;;10.63;9.73;;;29.00;50.20;;;;;;4934415;29;20503;-59
2021/07/23 12:05:53;;;;;;;10.80;9.90;;;28.10;53.70;;;;;;4937199;29;20936;-58
2021/07/23 12:08:22;;;;;;;11.43;10.53;;;29.20;52.20;;;;;;4941635;29;20460;-59
2021/07/23 12:10:54;;;;;;;11.10;9.67;;;30.00;51.30;;;;;;4941538;29;20559;-59
2021/07/23 12:13:21;;;;;;;11.53;10.63;;;30.60;49.70;;;;;;4941957;29;20758;-59
2021/07/23 12:15:56;;;;;;;11.53;10.53;;;30.80;49.20;;;;;;4941011;29;20507;-58
2021/07/23 12:18:26;;;;;;;11.87;10.77;;;31.20;48.80;;;;;;4941681;29;20474;-57
2021/07/23 12:21:07;;;;;;;11.67;10.50;;;30.20;48.00;;;;;;4941910;29;20467;-59
2021/07/23 13:02:04;;;;;;;11.13;10.23;;;31.30;47.70;;;;;;3537243;23;20794;-60
2021/07/23 13:04:31;;;;;;;11.10;10.00;;;31.60;46.60;;;;;;4970808;28;20493;-57
2021/07/23 13:06:59;;;;;;;10.07;9.17;;;31.10;47.20;;;;;;4978630;28;20461;-55
2021/07/23 13:09:26;;;;;;;12.70;10.60;;;30.60;48.80;;;;;;4979125;28;20467;-58
2021/07/23 13:11:53;;;;;;;11.50;10.40;;;30.90;48.70;;;;;;4978485;28;20476;-57
2021/07/23 13:14:22;;;;;;;10.53;9.53;;;30.90;47.70;;;;;;4978566;28;20465;-58
2021/07/23 13:16:49;;;;;;;10.37;9.37;;;30.90;48.20;;;;;;4979516;28;20476;-58
2021/07/23 13:19:18;;;;;;;11.13;10.03;;;30.70;49.70;;;;;;4979549;28;20516;-58
2021/07/23 13:21:48;;;;;;;10.13;9.23;;;31.60;47.10;;;;;;4978679;28;20782;-57
2021/07/23 13:24:15;;;;;;;9.27;8.33;;;31.40;47.90;;;;;;4978963;28;20601;-58
2021/07/23 13:26:42;;;;;;;10.83;9.93;;;31.20;47.80;;;;;;4979281;28;20540;-55
2021/07/23 13:29:10;;;;;;;10.50;9.60;;;30.30;47.00;;;;;;4979055;28;20887;-55
2021/07/23 13:31:40;;;;;;;10.70;9.67;;;29.00;49.40;;;;;;4978357;28;20470;-57
2021/07/23 13:34:08;;;;;;;10.83;9.30;;;28.30;51.10;;;;;;4979070;28;20549;-56
2021/07/23 13:36:42;;;;;;;9.93;9.00;;;29.10;51.90;;;;;;4979035;28;20886;-56
2021/07/23 13:39:13;;;;;;;10.00;9.20;;;29.30;50.50;;;;;;4978109;28;20901;-58
2021/07/23 13:41:45;;;;;;;9.77;8.73;;;29.80;50.70;;;;;;4979119;28;21019;-53
2021/07/23 13:44:12;;;;;;;9.63;8.93;;;30.20;50.30;;;;;;4978722;28;20501;-57
2021/07/23 13:46:39;;;;;;;10.50;9.70;;;30.50;49.90;;;;;;4977956;28;20470;-59
2021/07/23 13:49:06;;;;;;;11.40;10.40;;;30.70;49.60;;;;;;4978937;28;20477;-58
2021/07/23 13:51:34;;;;;;;11.37;10.27;;;30.90;48.70;;;;;;4978471;28;20465;-55
2021/07/23 13:54:05;;;;;;;9.77;9.07;;;31.10;47.30;;;;;;4978933;28;20921;-58
2021/07/23 13:56:32;;;;;;;10.40;9.50;;;31.40;47.90;;;;;;4978965;28;20470;-57
2021/07/23 13:59:02;;;;;;;10.97;10.13;;;30.90;47.80;;;;;;4978417;28;20508;-57
2021/07/23 14:01:31;;;;;;;11.67;10.77;;;30.80;47.70;;;;;;4978074;28;20490;-57
2021/07/23 14:04:00;;;;;;;10.30;9.50;;;31.10;47.80;;;;;;4969188;28;20501;-57
2021/07/23 14:06:27;;;;;;;10.57;9.50;;;30.40;47.20;;;;;;4976052;28;20767;-57
2021/07/23 14:08:55;;;;;;;10.87;9.07;;;30.40;48.50;;;;;;4978376;28;20557;-55
2021/07/23 14:11:24;;;;;;;11.17;10.27;;;30.70;48.90;;;;;;4978722;28;20760;-58
2021/07/23 14:13:51;;;;;;;10.10;9.30;;;30.90;48.10;;;;;;4977350;28;20461;-57
2021/07/23 14:16:20;;;;;;;10.70;9.80;;;30.60;47.20;;;;;;4978139;28;20458;-58
2021/07/23 14:18:47;;;;;;;9.70;8.90;;;30.30;49.20;;;;;;4977992;28;20501;-58
2021/07/23 14:21:18;;;;;;;10.90;9.80;;;30.30;48.50;;;;;;4977875;28;20926;-58
2021/07/23 14:23:46;;;;;;;10.53;9.50;;;30.50;48.40;;;;;;4977468;28;20462;-58
2021/07/23 14:26:14;;;;;;;13.50;10.77;;;30.90;47.90;;;;;;4977853;28;20826;-57
2021/07/23 14:28:42;;;;;;;9.60;8.80;;;30.70;47.90;;;;;;4978494;28;20466;-58
2021/07/23 14:31:14;;;;;;;10.97;9.97;;;30.80;48.50;;;;;;4978282;28;20728;-57
2021/07/23 14:33:41;;;;;;;9.67;8.97;;;31.00;47.40;;;;;;4977359;28;20470;-58
2021/07/23 14:36:09;;;;;;;9.07;8.27;;;31.10;48.30;;;;;;4978093;28;20466;-58
2021/07/23 15:14:47;;;;;;;9.50;8.23;;;29.40;48.90;;;;;;5499226;23;20585;31
2021/07/23 15:17:19;;;;;;;9.30;8.40;;;29.30;51.20;;;;;;4941207;29;20462;-57
2021/07/23 15:19:48;;;;;;;9.57;8.77;;;28.90;51.40;;;;;;4943651;29;20467;-56
2021/07/23 15:22:15;;;;;;;9.37;8.47;;;29.40;50.80;;;;;;4931704;29;20468;-57
2021/07/23 15:24:42;;;;;;;9.93;9.23;;;29.60;49.80;;;;;;4923357;29;20500;-54
2021/07/23 15:27:13;;;;;;;9.57;8.77;;;29.40;50.60;;;;;;4923902;29;20469;-55
2021/07/23 15:29:44;;;;;;;10.77;9.27;;;29.20;50.90;;;;;;4923610;29;20953;-57
2021/07/23 15:32:11;;;;;;;9.87;9.07;;;29.50;50.80;;;;;;4923966;29;20474;-55
2021/07/23 15:34:42;;;;;;;10.37;9.37;;;29.50;50.70;;;;;;4923612;29;20468;-54
2021/07/23 15:37:10;;;;;;;10.63;9.73;;;29.70;50.10;;;;;;4923718;29;20894;-55
2021/07/23 15:39:40;;;;;;;11.63;8.87;;;29.70;50.90;;;;;;4936732;29;20885;-56
2021/07/23 15:42:09;;;;;;;9.43;8.63;;;29.80;50.40;;;;;;4942335;29;20467;-57
2021/07/23 15:44:37;;;;;;;10.33;9.43;;;29.60;50.40;;;;;;4942077;29;20898;-57
2021/07/23 15:47:05;;;;;;;11.17;10.07;;;29.00;50.80;;;;;;4942814;29;20463;-57
2021/07/23 15:49:32;;;;;;;9.20;8.30;;;28.50;50.70;;;;;;4941675;29;20474;-54
2021/07/23 15:52:01;;;;;;;10.43;9.50;;;28.60;52.30;;;;;;4942166;29;20459;-57
2021/07/23 15:54:28;;;;;;;10.67;9.77;;;29.00;52.00;;;;;;4941064;29;20459;-56
2021/07/23 15:56:55;;;;;;;10.00;8.87;;;29.00;51.50;;;;;;4940854;29;20478;-57
2021/07/23 15:59:22;;;;;;;10.07;9.27;;;29.00;51.10;;;;;;4940985;29;20463;-58
2021/07/23 16:01:49;;;;;;;10.77;9.70;;;28.90;51.50;;;;;;4940681;29;20767;-56
2021/07/23 16:04:19;;;;;;;9.17;8.47;;;28.60;51.30;;;;;;4930851;29;20976;-57
2021/07/23 16:06:48;;;;;;;8.80;8.10;;;28.20;52.80;;;;;;4940482;29;20467;-55
2021/07/23 16:09:17;;;;;;;9.87;8.90;;;28.00;52.40;;;;;;4939842;29;20464;-56
2021/07/23 16:11:44;;;;;;;8.67;8.07;;;28.10;53.10;;;;;;4941589;29;20908;-53
2021/07/23 16:14:12;;;;;;;9.93;9.13;;;28.20;53.20;;;;;;4941351;29;20464;-56
2021/07/23 16:16:39;;;;;;;10.13;8.87;;;28.40;52.60;;;;;;4942159;29;20503;-57
2021/07/23 16:19:07;;;;;;;9.53;8.70;;;28.60;52.80;;;;;;4942313;29;20919;-58
2021/07/23 16:21:34;;;;;;;10.30;9.17;;;28.70;51.70;;;;;;4940238;29;20571;-58
2021/07/23 16:24:05;;;;;;;11.53;10.33;;;28.80;51.90;;;;;;4930903;29;20472;-57
2021/07/23 16:26:36;;;;;;;9.80;8.90;;;28.40;51.70;;;;;;4921029;29;20504;-58
2021/07/23 16:29:03;;;;;;;9.43;8.47;;;27.90;52.50;;;;;;4929405;29;20762;-56
2021/07/23 16:31:34;;;;;;;10.60;9.60;;;27.60;54.30;;;;;;4927113;29;20465;-58
2021/07/23 16:34:07;;;;;;;9.67;7.80;;;27.70;53.20;;;;;;4924398;29;20464;-57
2021/07/23 16:36:36;;;;;;;9.30;8.50;;;27.40;53.60;;;;;;4941591;29;20470;-58
2021/07/23 16:39:04;;;;;;;9.30;8.60;;;27.60;54.00;;;;;;4941721;29;20897;-58
2021/07/23 16:41:31;;;;;;;9.13;8.27;;;27.50;53.80;;;;;;4940857;29;20448;-57
2021/07/23 16:44:00;;;;;;;10.33;9.27;;;27.90;54.10;;;;;;4941406;29;20464;-57
2021/07/23 16:46:28;;;;;;;9.10;8.30;;;27.60;53.40;;;;;;4940961;29;20498;-57
2021/07/23 16:48:57;;;;;;;8.70;8.00;;;27.90;53.90;;;;;;4941495;29;20471;-57
2021/07/23 16:51:24;;;;;;;9.30;8.50;;;28.00;53.80;;;;;;4940196;29;20468;-57
2021/07/23 16:53:51;;;;;;;9.30;8.50;;;27.80;53.20;;;;;;4941473;29;20478;-57
2021/07/23 16:56:21;;;;;;;10.20;9.40;;;27.60;53.70;;;;;;4940978;29;20560;-58
2021/07/23 16:58:48;;;;;;;8.93;8.03;;;27.40;54.20;;;;;;4941465;29;20479;-57
2021/07/23 17:01:17;;;;;;;8.70;7.90;;;27.30;54.40;;;;;;4941175;29;20479;-55